Terminal Aerodrome Forecast
Issued by NWS Binghamton, NY

Home | Current Version | Previous Version | Text Only | Print | Product List | Glossary On
Versions: 1 2 3 4 5 6 7 8 9 10 11 12 13 14 15 16 17 18 19 20 21 22 23
000
FTUS41 KBGM 211100
TAFSYR
TAF
KSYR 211129Z 2112/2212 10005KT 6SM -SHRA SCT025 OVC035
      TEMPO 2112/2116 5SM -SHRA BKN025 OVC035
     FM211600 08004KT P6SM -SHRA OVC025
     FM212100 04004KT 5SM -SHRA SCT015 OVC025=

USA.gov is the U.S. government's official web portal to all federal, state and local government web resources and services.